createdAt,value
2022-12-22T00:00:50.909Z,48.17
2022-12-22T00:03:36.609Z,46.40
2022-12-22T00:06:22.536Z,47.80
2022-12-22T00:09:08.312Z,41.07
2022-12-22T00:11:54.158Z,50.40
2022-12-22T00:14:39.735Z,62.73
2022-12-22T00:17:38.551Z,51.17
2022-12-22T00:20:32.041Z,41.47
2022-12-22T00:23:18.028Z,35.83
2022-12-22T00:26:03.765Z,37.70
2022-12-22T00:28:49.905Z,37.70
2022-12-22T00:31:36.061Z,36.73
2022-12-22T00:34:22.512Z,41.30
2022-12-22T00:37:08.353Z,57.67
2022-12-22T00:39:54.277Z,55.53
2022-12-22T00:42:40.240Z,55.47
2022-12-22T00:45:26.422Z,47.43
2022-12-22T00:48:12.119Z,46.00
2022-12-22T00:50:58.040Z,37.13
2022-12-22T00:53:43.646Z,38.43
2022-12-22T00:56:29.779Z,36.03
2022-12-22T00:59:17.591Z,36.37
2022-12-22T01:02:03.588Z,35.37
2022-12-22T01:04:49.381Z,38.10
2022-12-22T01:07:37.960Z,46.43
2022-12-22T01:10:23.920Z,42.30
2022-12-22T01:13:09.804Z,48.33
2022-12-22T01:15:55.741Z,45.60
2022-12-22T01:18:41.192Z,40.27
2022-12-22T01:21:28.393Z,47.07
2022-12-22T01:24:14.189Z,42.10
2022-12-22T01:27:03.065Z,41.07
2022-12-22T01:29:48.701Z,38.27
2022-12-22T01:32:34.417Z,49.07
2022-12-22T01:35:20.239Z,93.37
2022-12-22T01:38:06.240Z,72.60
2022-12-22T01:40:52.165Z,61.13
2022-12-22T01:43:44.901Z,56.80
2022-12-22T01:47:09.380Z,46.77
2022-12-22T01:50:00.741Z,37.53
2022-12-22T01:52:51.824Z,36.40
2022-12-22T01:55:42.469Z,33.43
2022-12-22T01:58:45.250Z,32.00
2022-12-22T02:01:31.625Z,32.73
2022-12-22T02:04:18.116Z,30.23
2022-12-22T02:07:05.623Z,32.97
2022-12-22T02:10:23.139Z,31.77
2022-12-22T02:13:27.433Z,33.33
2022-12-22T02:16:30.266Z,32.10
2022-12-22T02:19:26.665Z,39.67
2022-12-22T02:22:23.374Z,36.17
2022-12-22T02:25:21.863Z,28.00
2022-12-22T02:28:11.776Z,28.67
2022-12-22T02:30:58.776Z,29.93
2022-12-22T02:33:44.456Z,31.40
2022-12-22T02:36:49.109Z,32.73
2022-12-22T02:39:37.700Z,28.80
2022-12-22T02:42:29.468Z,31.57
2022-12-22T02:45:35.824Z,29.33
2022-12-22T02:48:36.569Z,29.50
2022-12-22T02:51:25.614Z,25.57
2022-12-22T02:54:12.656Z,26.23
2022-12-22T02:56:59.641Z,27.07
2022-12-22T02:59:45.439Z,41.37
2022-12-22T03:02:32.742Z,29.17
2022-12-22T03:05:18.855Z,26.77
2022-12-22T03:08:08.262Z,29.53
2022-12-22T03:10:55.836Z,28.20
2022-12-22T03:13:41.399Z,24.90
2022-12-22T03:16:28.659Z,23.87
2022-12-22T03:19:14.453Z,25.50
2022-12-22T03:22:00.284Z,27.10
2022-12-22T03:24:46.169Z,27.60
2022-12-22T03:27:13.576Z,26.10
2022-12-22T03:29:40.838Z,27.37
2022-12-22T03:32:08.037Z,25.27
2022-12-22T03:34:35.183Z,24.10
2022-12-22T03:37:02.385Z,24.93
2022-12-22T03:39:32.304Z,27.43
2022-12-22T03:42:18.515Z,30.10
2022-12-22T03:45:04.006Z,28.20
2022-12-22T03:47:32.629Z,30.97
2022-12-22T03:49:59.749Z,34.63
2022-12-22T03:52:26.969Z,25.37
2022-12-22T03:54:54.167Z,24.10
2022-12-22T03:57:21.306Z,24.20
2022-12-22T03:59:48.803Z,23.20
2022-12-22T04:02:16.071Z,22.53
2022-12-22T04:04:43.287Z,21.07
2022-12-22T04:07:10.749Z,19.47
2022-12-22T04:09:57.817Z,20.23
2022-12-22T04:12:44.379Z,18.83
2022-12-22T04:15:11.488Z,18.93
2022-12-22T04:17:38.615Z,18.87
2022-12-22T04:20:07.014Z,18.97
2022-12-22T04:22:34.206Z,18.13
2022-12-22T04:25:01.399Z,19.97
2022-12-22T04:27:29.647Z,21.20
2022-12-22T04:29:56.787Z,21.90
2022-12-22T04:32:23.980Z,22.80
2022-12-22T04:34:51.272Z,22.93
2022-12-22T04:37:18.415Z,22.67
2022-12-22T04:39:45.636Z,22.93
2022-12-22T04:42:12.822Z,22.77
2022-12-22T04:44:40.234Z,24.87
2022-12-22T04:47:07.496Z,22.30
2022-12-22T04:49:34.669Z,22.00
2022-12-22T04:52:01.858Z,22.23
2022-12-22T04:54:29.007Z,20.73
2022-12-22T04:56:58.710Z,25.13
2022-12-22T04:59:28.920Z,26.43
2022-12-22T05:01:56.199Z,23.97
2022-12-22T05:04:23.941Z,23.27
2022-12-22T05:06:51.417Z,23.30
2022-12-22T05:09:18.537Z,20.17
2022-12-22T05:11:45.745Z,18.67
2022-12-22T05:14:13.007Z,23.93
2022-12-22T05:16:40.468Z,23.50
2022-12-22T05:19:08.115Z,22.27
2022-12-22T05:21:35.357Z,28.37
2022-12-22T05:24:02.745Z,28.50
2022-12-22T05:26:29.971Z,28.07
2022-12-22T05:28:57.385Z,25.40
2022-12-22T05:31:25.960Z,66.17
2022-12-22T05:33:53.469Z,23.60
2022-12-22T05:36:20.815Z,21.83
2022-12-22T05:38:48.082Z,23.13
2022-12-22T05:41:15.254Z,23.77
2022-12-22T05:43:42.532Z,24.73
2022-12-22T05:46:12.211Z,21.87
2022-12-22T05:48:42.099Z,21.73
2022-12-22T05:51:10.963Z,24.63
2022-12-22T05:53:39.380Z,21.57
2022-12-22T05:56:09.957Z,25.47
2022-12-22T05:58:38.998Z,29.00
2022-12-22T06:01:06.665Z,28.63
2022-12-22T06:03:34.441Z,42.50
2022-12-22T06:06:01.831Z,33.67
2022-12-22T06:08:29.085Z,34.90
2022-12-22T06:10:57.815Z,36.00
2022-12-22T06:13:26.020Z,30.43
2022-12-22T06:15:53.695Z,39.63
2022-12-22T06:18:20.996Z,48.63
2022-12-22T06:20:48.451Z,55.00
2022-12-22T06:23:15.587Z,48.33
2022-12-22T06:25:42.808Z,43.70
2022-12-22T06:28:10.108Z,35.03
2022-12-22T06:30:37.300Z,50.90
2022-12-22T06:33:04.507Z,51.27
2022-12-22T06:35:31.672Z,55.70
2022-12-22T06:38:01.733Z,52.50
2022-12-22T06:40:28.920Z,34.20
2022-12-22T06:43:11.195Z,33.87
2022-12-22T06:45:41.564Z,46.50
2022-12-22T06:48:13.463Z,54.47
2022-12-22T06:50:41.111Z,63.73
2022-12-22T06:53:09.432Z,43.43
2022-12-22T06:55:37.611Z,40.27
2022-12-22T06:58:05.756Z,39.53
2022-12-22T07:00:33.855Z,32.47
2022-12-22T07:03:01.538Z,36.73
2022-12-22T07:05:30.695Z,33.57
2022-12-22T07:08:02.512Z,38.17
2022-12-22T07:10:51.632Z,39.53
2022-12-22T07:13:21.816Z,39.87
2022-12-22T07:15:57.280Z,43.57
2022-12-22T07:18:28.284Z,31.93
2022-12-22T07:20:55.516Z,47.63
2022-12-22T07:23:22.884Z,43.57
2022-12-22T07:25:50.676Z,40.87
2022-12-22T07:28:20.948Z,41.93
2022-12-22T07:30:49.987Z,39.00
2022-12-22T07:33:17.971Z,49.67
2022-12-22T07:35:45.332Z,55.67
2022-12-22T07:38:13.261Z,55.30
2022-12-22T07:40:42.424Z,48.53
2022-12-22T07:43:10.739Z,44.80
2022-12-22T07:45:44.041Z,46.40
2022-12-22T07:48:31.160Z,52.43
2022-12-22T07:51:04.691Z,45.30
2022-12-22T07:53:34.234Z,68.57
2022-12-22T07:56:06.064Z,54.77
2022-12-22T07:58:33.765Z,42.77
2022-12-22T08:01:02.055Z,41.03
2022-12-22T08:03:29.474Z,31.57
2022-12-22T08:05:56.774Z,76.70
2022-12-22T08:08:23.977Z,52.20
2022-12-22T08:10:54.193Z,51.90
2022-12-22T08:13:21.414Z,51.67
2022-12-22T08:15:48.783Z,34.37
2022-12-22T08:18:16.031Z,32.40
2022-12-22T08:20:50.109Z,52.53
2022-12-22T08:23:17.492Z,31.87
2022-12-22T08:25:46.270Z,40.07
2022-12-22T08:28:15.752Z,31.17
2022-12-22T08:30:43.124Z,29.07
2022-12-22T08:33:10.613Z,31.00
2022-12-22T08:35:37.991Z,30.43
2022-12-22T08:38:05.943Z,33.53
2022-12-22T08:40:33.803Z,32.60
2022-12-22T08:43:05.482Z,62.10
2022-12-22T08:45:33.328Z,67.50
2022-12-22T08:48:00.618Z,58.70
2022-12-22T08:50:27.924Z,32.93
2022-12-22T08:53:06.031Z,29.97
2022-12-22T08:55:33.692Z,33.70
2022-12-22T08:58:00.844Z,49.63
2022-12-22T09:00:28.274Z,36.30
2022-12-22T09:02:56.173Z,49.10
2022-12-22T09:05:23.514Z,34.90
2022-12-22T09:07:50.679Z,28.57
2022-12-22T09:10:18.323Z,34.33
2022-12-22T09:12:48.129Z,36.33
2022-12-22T09:15:18.529Z,32.27
2022-12-22T09:17:48.384Z,26.30
2022-12-22T09:20:15.707Z,20.93
2022-12-22T09:22:42.897Z,24.83
2022-12-22T09:25:11.009Z,30.77
2022-12-22T09:27:38.240Z,59.93
2022-12-22T09:30:06.017Z,49.90
2022-12-22T09:32:33.138Z,25.77
2022-12-22T09:35:00.379Z,24.07
2022-12-22T09:37:27.655Z,16.27
2022-12-22T09:39:54.782Z,26.47
2022-12-22T09:42:24.167Z,26.53
2022-12-22T09:44:52.248Z,18.47
2022-12-22T09:47:22.936Z,29.57
2022-12-22T09:49:51.971Z,33.70
2022-12-22T09:52:42.183Z,17.83
2022-12-22T09:55:26.931Z,16.13
2022-12-22T09:57:54.925Z,20.90
2022-12-22T10:00:28.569Z,21.03
2022-12-22T10:03:04.752Z,27.43
2022-12-22T10:05:57.240Z,36.87
2022-12-22T10:08:34.473Z,28.13
2022-12-22T10:11:02.234Z,18.57
2022-12-22T10:13:29.585Z,15.70
2022-12-22T10:15:56.808Z,14.83
2022-12-22T10:18:27.362Z,16.57
2022-12-22T10:21:12.301Z,18.20
2022-12-22T10:23:47.526Z,20.53
2022-12-22T10:26:31.292Z,18.47
2022-12-22T10:29:09.303Z,16.20
2022-12-22T10:31:41.226Z,17.37
2022-12-22T10:34:18.031Z,18.70
2022-12-22T10:36:50.469Z,18.80
2022-12-22T10:39:24.192Z,16.40
2022-12-22T10:41:55.998Z,15.47
2022-12-22T10:44:32.429Z,15.63
2022-12-22T10:47:02.175Z,14.27
2022-12-22T10:52:19.129Z,25.57
2022-12-22T10:54:49.283Z,18.10
2022-12-22T10:57:19.258Z,16.57
2022-12-22T10:59:49.381Z,17.83
2022-12-22T11:02:28.570Z,16.00
2022-12-22T11:05:03.538Z,16.40
2022-12-22T11:07:37.276Z,18.73
2022-12-22T11:10:15.199Z,17.40
2022-12-22T11:13:07.389Z,14.57
2022-12-22T11:16:18.465Z,16.30
2022-12-22T11:19:32.547Z,20.97
2022-12-22T11:22:11.582Z,19.33
2022-12-22T11:25:10.682Z,31.00
2022-12-22T11:27:51.819Z,23.17
2022-12-22T11:30:35.018Z,23.20
2022-12-22T11:33:24.644Z,24.63
2022-12-22T11:36:38.583Z,21.40
2022-12-22T11:39:13.516Z,32.77
2022-12-22T11:42:20.238Z,21.73
2022-12-22T11:44:47.351Z,25.80
2022-12-22T11:47:27.004Z,17.67
2022-12-22T11:51:01.104Z,16.13
2022-12-22T11:53:32.306Z,15.87
2022-12-22T11:56:07.200Z,17.27
2022-12-22T11:58:56.766Z,18.80
2022-12-22T12:01:43.424Z,19.87
2022-12-22T12:04:32.142Z,21.63
2022-12-22T12:07:33.026Z,27.80
2022-12-22T12:10:15.237Z,31.03
2022-12-22T12:12:50.348Z,29.93
2022-12-22T12:15:32.714Z,38.30
2022-12-22T12:18:09.083Z,27.50
2022-12-22T12:20:57.641Z,23.03
2022-12-22T12:23:43.378Z,32.90
2022-12-22T12:26:31.672Z,34.33
2022-12-22T12:29:16.329Z,18.77
2022-12-22T12:32:02.688Z,13.60
2022-12-22T12:34:37.837Z,16.53
2022-12-22T12:37:26.591Z,19.07
2022-12-22T12:40:31.544Z,16.20
2022-12-22T12:43:00.858Z,16.50
2022-12-22T12:45:43.275Z,18.40
2022-12-22T12:48:22.481Z,19.73
2022-12-22T12:50:57.018Z,18.07
2022-12-22T12:53:26.253Z,15.00
2022-12-22T12:55:56.283Z,18.27
2022-12-22T12:58:35.985Z,14.37
2022-12-22T13:01:24.104Z,18.40
2022-12-22T13:04:06.727Z,16.20
2022-12-22T13:06:53.604Z,20.07
2022-12-22T13:09:50.001Z,19.03
2022-12-22T13:12:33.865Z,12.20
2022-12-22T13:15:02.199Z,17.40
2022-12-22T13:17:59.825Z,15.13
2022-12-22T13:20:35.441Z,14.23
2022-12-22T13:23:10.525Z,14.97
2022-12-22T13:25:40.964Z,19.53
2022-12-22T13:28:16.195Z,38.13
2022-12-22T13:31:01.110Z,42.00
2022-12-22T13:33:32.533Z,30.87
2022-12-22T13:36:00.620Z,22.83
2022-12-22T13:38:32.289Z,17.60
2022-12-22T13:41:02.836Z,18.33
2022-12-22T13:43:32.563Z,18.87
2022-12-22T13:46:02.880Z,19.97
2022-12-22T13:48:44.613Z,22.73
2022-12-22T13:51:20.173Z,41.27
2022-12-22T13:54:16.994Z,17.50
2022-12-22T13:56:53.445Z,23.93
2022-12-22T13:59:36.497Z,16.87
2022-12-22T14:02:12.784Z,36.17
2022-12-22T14:05:07.534Z,19.97
2022-12-22T14:07:34.687Z,29.80
2022-12-22T14:10:07.646Z,18.37
2022-12-22T14:12:42.408Z,16.37
2022-12-22T14:15:17.231Z,33.80
2022-12-22T14:17:52.192Z,16.93
2022-12-22T14:20:32.561Z,19.07
2022-12-22T14:23:08.389Z,29.93
2022-12-22T14:25:41.961Z,48.03
2022-12-22T14:28:50.405Z,45.77
2022-12-22T14:31:18.766Z,39.73
2022-12-22T14:34:24.011Z,36.10
2022-12-22T14:36:53.857Z,50.63
2022-12-22T14:39:24.985Z,54.10
2022-12-22T14:41:58.362Z,66.90
2022-12-22T14:44:25.634Z,49.50
2022-12-22T14:47:15.263Z,50.97
2022-12-22T14:49:49.996Z,33.13
2022-12-22T14:52:46.458Z,57.20
2022-12-22T14:55:34.723Z,55.47
2022-12-22T14:58:21.061Z,39.97
2022-12-22T15:01:09.781Z,41.93
2022-12-22T15:03:41.542Z,85.77
2022-12-22T15:06:27.648Z,52.00
2022-12-22T15:09:09.301Z,29.70
2022-12-22T15:11:39.093Z,26.57
2022-12-22T15:14:09.806Z,27.37
2022-12-22T15:16:37.040Z,25.73
2022-12-22T15:19:05.662Z,19.57
2022-12-22T15:21:33.875Z,29.07
2022-12-22T15:24:01.397Z,24.73
2022-12-22T15:26:31.803Z,25.80
2022-12-22T15:29:05.525Z,29.30
2022-12-22T15:31:32.970Z,24.73
2022-12-22T15:34:02.997Z,29.10
2022-12-22T15:36:30.319Z,34.70
2022-12-22T15:38:57.920Z,33.93
2022-12-22T15:41:25.812Z,36.87
2022-12-22T15:43:57.918Z,37.27
2022-12-22T15:46:26.369Z,38.07
2022-12-22T15:48:53.721Z,36.30
2022-12-22T15:51:28.508Z,34.17
2022-12-22T15:53:57.433Z,30.90
2022-12-22T15:56:26.925Z,29.00
2022-12-22T15:58:58.128Z,33.00
2022-12-22T16:01:25.421Z,33.80
2022-12-22T16:03:52.859Z,37.00
2022-12-22T16:06:20.656Z,35.87
2022-12-22T16:08:53.705Z,33.73
2022-12-22T16:11:21.337Z,76.97
2022-12-22T16:13:50.588Z,67.80
2022-12-22T16:16:18.208Z,42.53
2022-12-22T16:18:45.605Z,34.70
2022-12-22T16:21:17.172Z,34.67
2022-12-22T16:23:48.586Z,35.73
2022-12-22T16:26:20.627Z,37.47
2022-12-22T16:28:48.215Z,26.27
2022-12-22T16:31:19.681Z,33.63
2022-12-22T16:33:47.420Z,29.80
2022-12-22T16:36:14.778Z,35.23
2022-12-22T16:38:42.672Z,39.63
2022-12-22T16:41:30.762Z,36.40
2022-12-22T16:46:44.861Z,29.90
2022-12-22T16:49:22.887Z,23.37
2022-12-22T16:51:55.061Z,33.93
2022-12-22T16:54:22.450Z,20.73
2022-12-22T16:56:51.756Z,18.53
2022-12-22T16:59:19.402Z,18.53
2022-12-22T17:01:56.401Z,14.57
2022-12-22T17:04:28.139Z,12.23
2022-12-22T17:06:56.855Z,7.27
2022-12-22T17:09:31.194Z,14.40
2022-12-22T17:11:59.734Z,11.93
2022-12-22T17:14:35.384Z,10.27
2022-12-22T17:17:02.798Z,9.03
2022-12-22T17:19:30.169Z,10.83
2022-12-22T17:21:59.264Z,10.30
2022-12-22T17:24:28.564Z,16.53
2022-12-22T17:27:03.790Z,7.73
2022-12-22T17:29:31.602Z,10.70
2022-12-22T17:31:58.820Z,10.80
2022-12-22T17:34:26.755Z,22.83
2022-12-22T17:36:56.946Z,22.57
2022-12-22T17:39:24.237Z,14.57
2022-12-22T17:41:56.591Z,9.40
2022-12-22T17:44:26.924Z,20.87
2022-12-22T17:46:54.456Z,31.03
2022-12-22T17:49:22.939Z,25.33
2022-12-22T17:51:50.595Z,15.53
2022-12-22T17:54:28.017Z,25.43
2022-12-22T17:57:00.856Z,21.27
2022-12-22T17:59:28.553Z,22.33
2022-12-22T18:01:56.148Z,19.13
2022-12-22T18:04:23.476Z,12.43
2022-12-22T18:06:50.838Z,22.47
2022-12-22T18:09:24.560Z,19.60
2022-12-22T18:11:51.877Z,12.80
2022-12-22T18:14:22.382Z,16.97
2022-12-22T18:16:49.824Z,17.57
2022-12-22T18:19:17.161Z,17.27
2022-12-22T18:21:44.536Z,29.37
2022-12-22T18:24:19.954Z,20.80
2022-12-22T18:26:47.741Z,16.53
2022-12-22T18:29:16.405Z,14.23
2022-12-22T18:31:44.575Z,20.23
2022-12-22T18:34:12.672Z,16.43
2022-12-22T18:36:46.140Z,14.20
2022-12-22T18:39:20.403Z,15.87
2022-12-22T18:41:47.858Z,17.93
2022-12-22T18:44:19.179Z,21.47
2022-12-22T18:46:47.871Z,22.50
2022-12-22T18:49:15.190Z,27.27
2022-12-22T18:51:46.167Z,26.40
2022-12-22T18:54:32.676Z,29.80
2022-12-22T18:56:59.948Z,22.40
2022-12-22T18:59:33.217Z,16.33
2022-12-22T19:02:07.145Z,18.67
2022-12-22T19:04:34.384Z,13.43
2022-12-22T19:07:01.499Z,13.40
2022-12-22T19:09:28.711Z,12.93
2022-12-22T19:11:55.937Z,15.17
2022-12-22T19:14:23.361Z,18.60
2022-12-22T19:16:50.672Z,9.77
2022-12-22T19:19:19.557Z,17.40
2022-12-22T19:21:49.737Z,27.37
2022-12-22T19:24:16.938Z,32.77
2022-12-22T19:26:44.225Z,40.43
2022-12-22T19:29:14.111Z,37.70
2022-12-22T19:31:41.649Z,37.97
2022-12-22T19:34:16.838Z,61.47
2022-12-22T19:36:44.203Z,85.67
2022-12-22T19:39:11.463Z,77.73
2022-12-22T19:41:50.107Z,75.67
2022-12-22T19:44:25.388Z,165.53
2022-12-22T19:46:54.449Z,68.37
2022-12-22T19:49:24.871Z,108.23
2022-12-22T19:51:52.090Z,133.30
2022-12-22T19:54:19.969Z,164.47
2022-12-22T19:56:51.131Z,100.93
2022-12-22T19:59:55.800Z,141.50
2022-12-22T20:02:26.410Z,117.57
2022-12-22T20:04:55.018Z,79.83
2022-12-22T20:07:25.089Z,79.47
2022-12-22T20:09:52.916Z,50.53
2022-12-22T20:12:31.502Z,58.07
2022-12-22T20:14:59.258Z,62.33
2022-12-22T20:17:26.676Z,58.87
2022-12-22T20:19:54.253Z,37.27
2022-12-22T20:22:23.550Z,62.53
2022-12-22T20:24:52.162Z,209.70
2022-12-22T20:27:24.697Z,215.37
2022-12-22T20:29:51.874Z,184.37
2022-12-22T20:32:27.149Z,156.57
2022-12-22T20:34:55.510Z,340.30
2022-12-22T20:37:23.324Z,352.27
2022-12-22T20:39:50.619Z,246.47
2022-12-22T20:42:24.918Z,134.63
2022-12-22T20:45:02.878Z,77.27
2022-12-22T20:47:33.707Z,39.67
2022-12-22T20:50:01.355Z,23.77
2022-12-22T20:52:28.521Z,10.00
2022-12-22T20:54:55.786Z,8.53
2022-12-22T20:57:23.943Z,5.30
2022-12-22T20:59:56.079Z,4.93
2022-12-22T21:02:28.546Z,4.43
2022-12-22T21:04:56.234Z,4.60
2022-12-22T21:07:23.861Z,4.60
2022-12-22T21:09:51.097Z,4.13
2022-12-22T21:12:18.194Z,4.53
2022-12-22T21:14:45.521Z,4.10
2022-12-22T21:17:19.815Z,3.55
2022-12-22T21:19:47.070Z,4.07
2022-12-22T21:22:14.438Z,3.63
2022-12-22T21:24:42.086Z,3.73
2022-12-22T21:27:16.187Z,2.30
2022-12-22T21:29:43.331Z,2.67
2022-12-22T21:32:17.143Z,3.43
2022-12-22T21:34:44.308Z,3.83
2022-12-22T21:37:18.559Z,3.97
2022-12-22T21:39:46.029Z,4.30
2022-12-22T21:42:17.963Z,4.37
2022-12-22T21:44:45.682Z,4.20
2022-12-22T21:47:14.675Z,4.27
2022-12-22T21:49:41.950Z,4.70
2022-12-22T21:52:09.182Z,4.50
2022-12-22T21:54:39.511Z,4.27
2022-12-22T21:57:06.706Z,4.67
2022-12-22T21:59:33.824Z,4.20
2022-12-22T22:02:01.146Z,3.77
2022-12-22T22:04:28.376Z,4.30
2022-12-22T22:06:55.500Z,4.77
2022-12-22T22:09:22.694Z,3.97
2022-12-22T22:12:08.479Z,3.97
2022-12-22T22:14:36.097Z,3.47
2022-12-22T22:17:03.366Z,4.67
2022-12-22T22:19:31.153Z,4.60
2022-12-22T22:21:58.359Z,5.20
2022-12-22T22:24:25.524Z,4.37
2022-12-22T22:26:52.860Z,4.40
2022-12-22T22:29:20.116Z,4.67
2022-12-22T22:31:47.535Z,4.40
2022-12-22T22:34:16.108Z,4.30
2022-12-22T22:36:43.208Z,4.00
2022-12-22T22:39:10.597Z,4.03
2022-12-22T22:41:42.961Z,3.90
2022-12-22T22:44:11.137Z,4.37
2022-12-22T22:46:38.405Z,3.83
2022-12-22T22:49:06.040Z,3.47
2022-12-22T22:51:33.936Z,4.73
2022-12-22T22:54:01.270Z,4.20
2022-12-22T22:56:28.412Z,4.27
2022-12-22T22:58:55.632Z,4.27
2022-12-22T23:01:22.760Z,4.53
2022-12-22T23:03:50.042Z,5.13
2022-12-22T23:06:17.352Z,4.83
2022-12-22T23:08:44.482Z,4.87
2022-12-22T23:11:15.512Z,5.13
2022-12-22T23:13:43.389Z,5.23
2022-12-22T23:16:11.547Z,5.97
2022-12-22T23:18:39.168Z,6.20
2022-12-22T23:21:07.878Z,5.83
2022-12-22T23:23:36.039Z,6.23
2022-12-22T23:26:03.339Z,6.00
2022-12-22T23:28:30.836Z,6.80
2022-12-22T23:30:58.049Z,6.27
2022-12-22T23:33:25.260Z,6.30
2022-12-22T23:35:52.800Z,6.33
2022-12-22T23:38:21.172Z,6.63
2022-12-22T23:40:55.962Z,6.03
2022-12-22T23:43:23.252Z,6.90
2022-12-22T23:45:50.528Z,6.63
2022-12-22T23:48:17.749Z,6.13
2022-12-22T23:50:48.718Z,5.90
2022-12-22T23:53:18.770Z,6.17
2022-12-22T23:55:49.743Z,6.60
2022-12-22T23:58:17.945Z,6.40
